createdAt,value
2023-01-17T00:02:25.213Z,5.28
2023-01-17T00:05:10.639Z,5.03
2023-01-17T00:07:56.144Z,5.29
2023-01-17T00:10:29.157Z,5.16
2023-01-17T00:13:00.106Z,5.25
2023-01-17T00:15:30.702Z,5.31
2023-01-17T00:17:59.454Z,5.24
2023-01-17T00:20:48.176Z,5.25
2023-01-17T00:23:36.398Z,4.80
2023-01-17T00:26:07.117Z,5.06
2023-01-17T00:28:35.094Z,5.07
2023-01-17T00:31:02.559Z,4.86
2023-01-17T00:33:29.500Z,4.98
2023-01-17T00:35:58.543Z,5.02
2023-01-17T00:38:27.599Z,4.91
2023-01-17T00:40:54.514Z,5.04
2023-01-17T00:43:42.363Z,4.92
2023-01-17T00:46:28.108Z,5.09
2023-01-17T00:49:13.337Z,5.07
2023-01-17T00:51:58.806Z,5.06
2023-01-17T00:54:44.148Z,5.28
2023-01-17T00:57:29.546Z,5.16
2023-01-17T01:00:16.136Z,5.09
2023-01-17T01:03:01.908Z,5.10
2023-01-17T01:05:47.325Z,4.96
2023-01-17T01:08:39.242Z,4.64
2023-01-17T01:11:30.804Z,4.65
2023-01-17T01:14:18.108Z,4.73
2023-01-17T01:17:05.171Z,4.78
2023-01-17T01:19:50.706Z,4.57
2023-01-17T01:22:36.491Z,4.61
2023-01-17T01:25:22.715Z,4.57
2023-01-17T01:28:08.198Z,4.65
2023-01-17T01:30:53.562Z,4.51
2023-01-17T01:33:21.634Z,4.56
2023-01-17T01:35:51.476Z,4.48
2023-01-17T01:38:21.222Z,4.45
2023-01-17T01:40:52.367Z,4.61
2023-01-17T01:43:40.255Z,4.67
2023-01-17T01:46:11.027Z,4.60
2023-01-17T01:48:48.100Z,4.79
2023-01-17T01:51:22.345Z,4.64
2023-01-17T01:53:55.248Z,4.59
2023-01-17T01:56:24.408Z,4.78
2023-01-17T01:58:54.472Z,4.65
2023-01-17T02:01:22.440Z,4.34
2023-01-17T02:03:52.401Z,4.45
2023-01-17T02:06:35.969Z,4.11
2023-01-17T02:09:09.068Z,4.20
2023-01-17T02:11:39.898Z,4.02
2023-01-17T02:14:08.050Z,3.89
2023-01-17T02:16:57.967Z,3.97
2023-01-17T02:20:22.487Z,3.84
2023-01-17T02:23:29.008Z,3.88
2023-01-17T02:26:31.977Z,3.94
2023-01-17T02:29:27.063Z,3.90
2023-01-17T02:32:03.189Z,3.91
2023-01-17T02:34:42.286Z,4.03
2023-01-17T02:37:23.426Z,3.75
2023-01-17T02:40:00.911Z,3.74
2023-01-17T02:42:39.455Z,3.90
2023-01-17T02:45:08.732Z,3.70
2023-01-17T02:47:38.377Z,3.78
2023-01-17T02:50:12.758Z,3.83
2023-01-17T02:53:00.327Z,3.82
2023-01-17T02:55:47.567Z,3.60
2023-01-17T02:58:35.466Z,3.44
2023-01-17T03:01:21.610Z,3.20
2023-01-17T03:03:59.959Z,3.17
2023-01-17T03:06:39.754Z,3.02
2023-01-17T03:09:09.784Z,2.98
2023-01-17T03:11:37.922Z,2.60
2023-01-17T03:14:05.621Z,2.83
2023-01-17T03:16:34.724Z,2.63
2023-01-17T03:19:04.231Z,2.61
2023-01-17T03:21:32.111Z,2.40
2023-01-17T03:24:00.002Z,2.50
2023-01-17T03:26:27.937Z,2.50
2023-01-17T03:28:55.833Z,2.78
2023-01-17T03:31:23.644Z,2.32
2023-01-17T03:33:51.438Z,2.41
2023-01-17T03:36:20.538Z,2.50
2023-01-17T03:38:48.509Z,2.88
2023-01-17T03:41:16.275Z,2.33
2023-01-17T03:43:44.012Z,2.26
2023-01-17T03:46:21.182Z,2.19
2023-01-17T03:48:49.233Z,2.54
2023-01-17T03:51:17.626Z,2.65
2023-01-17T03:53:47.293Z,2.20
2023-01-17T03:56:15.798Z,2.37
2023-01-17T03:58:43.927Z,2.45
2023-01-17T04:01:12.104Z,2.32
2023-01-17T04:03:40.103Z,2.38
2023-01-17T04:06:08.213Z,2.31
2023-01-17T04:08:35.964Z,2.36
2023-01-17T04:11:05.268Z,2.48
2023-01-17T04:13:33.036Z,2.69
2023-01-17T04:16:00.952Z,2.85
2023-01-17T04:18:29.386Z,2.82
2023-01-17T04:20:57.192Z,2.77
2023-01-17T04:23:24.979Z,2.53
2023-01-17T04:25:52.754Z,2.62
2023-01-17T04:28:21.859Z,2.77
2023-01-17T04:30:49.643Z,2.67
2023-01-17T04:33:17.422Z,2.83
2023-01-17T04:35:45.208Z,2.67
2023-01-17T04:38:12.982Z,2.73
2023-01-17T04:40:40.756Z,2.51
2023-01-17T04:43:08.489Z,2.40
2023-01-17T04:45:38.735Z,2.39
2023-01-17T04:48:08.336Z,2.34
2023-01-17T04:50:36.211Z,2.52
2023-01-17T04:53:04.014Z,2.76
2023-01-17T04:55:32.055Z,2.63
2023-01-17T04:57:59.840Z,2.76
2023-01-17T05:00:27.714Z,2.84
2023-01-17T05:02:56.942Z,2.83
2023-01-17T05:05:24.778Z,2.77
2023-01-17T05:07:56.216Z,2.82
2023-01-17T05:10:24.243Z,3.03
2023-01-17T05:12:56.651Z,2.83
2023-01-17T05:15:25.598Z,2.79
2023-01-17T05:17:56.136Z,2.87
2023-01-17T05:20:26.700Z,2.91
2023-01-17T05:22:56.344Z,3.03
2023-01-17T05:25:25.191Z,2.89
2023-01-17T05:27:53.240Z,3.35
2023-01-17T05:30:22.846Z,3.18
2023-01-17T05:32:51.555Z,3.43
2023-01-17T05:35:23.350Z,3.70
2023-01-17T05:37:52.323Z,3.93
2023-01-17T05:40:23.783Z,3.65
2023-01-17T05:42:54.310Z,3.54
2023-01-17T05:45:25.073Z,3.69
2023-01-17T05:47:54.169Z,3.39
2023-01-17T05:50:26.339Z,3.28
2023-01-17T05:52:56.970Z,2.70
2023-01-17T05:55:27.013Z,2.95
2023-01-17T05:57:55.583Z,3.05
2023-01-17T06:00:24.908Z,2.94
2023-01-17T06:02:55.094Z,2.91
2023-01-17T06:05:25.056Z,2.68
2023-01-17T06:07:53.331Z,2.56
2023-01-17T06:10:23.263Z,2.53
2023-01-17T06:12:51.247Z,2.90
2023-01-17T06:15:19.979Z,2.87
2023-01-17T06:17:47.699Z,2.79
2023-01-17T06:20:15.511Z,2.74
2023-01-17T06:22:44.654Z,2.72
2023-01-17T06:25:12.896Z,2.47
2023-01-17T06:27:40.714Z,2.35
2023-01-17T06:30:10.546Z,2.40
2023-01-17T06:32:38.319Z,2.52
2023-01-17T06:35:07.040Z,2.43
2023-01-17T06:37:35.388Z,2.47
2023-01-17T06:40:05.409Z,2.56
2023-01-17T06:42:33.133Z,2.32
2023-01-17T06:45:00.910Z,2.44
2023-01-17T06:47:28.700Z,2.27
2023-01-17T06:49:56.458Z,2.35
2023-01-17T06:52:24.308Z,2.28
2023-01-17T06:54:52.025Z,2.60
2023-01-17T06:57:21.229Z,2.39
2023-01-17T06:59:49.034Z,2.41
2023-01-17T07:02:16.766Z,1.98
2023-01-17T07:04:44.537Z,2.42
2023-01-17T07:07:12.541Z,2.34
2023-01-17T07:09:40.642Z,2.21
2023-01-17T07:12:08.934Z,2.09
2023-01-17T07:14:38.218Z,2.05
2023-01-17T07:17:06.066Z,2.05
2023-01-17T07:19:33.791Z,2.00
2023-01-17T07:22:01.805Z,1.93
2023-01-17T07:24:29.548Z,1.85
2023-01-17T07:26:57.356Z,2.05
2023-01-17T07:29:25.251Z,1.96
2023-01-17T07:31:54.329Z,1.80
2023-01-17T07:34:22.246Z,1.99
2023-01-17T07:36:50.004Z,1.88
2023-01-17T07:39:17.754Z,1.70
2023-01-17T07:41:47.223Z,2.03
2023-01-17T07:44:15.482Z,2.00
2023-01-17T07:46:43.607Z,2.12
2023-01-17T07:49:14.452Z,2.28
2023-01-17T07:51:42.459Z,2.33
2023-01-17T07:54:12.573Z,2.18
2023-01-17T07:56:45.380Z,2.29
2023-01-17T07:59:13.220Z,2.44
2023-01-17T08:01:41.106Z,2.45
2023-01-17T08:04:09.901Z,2.41
2023-01-17T08:06:47.594Z,2.65
2023-01-17T08:09:15.419Z,2.65
2023-01-17T08:11:43.209Z,2.54
2023-01-17T08:14:10.979Z,2.96
2023-01-17T08:16:39.989Z,3.02
2023-01-17T08:19:07.848Z,3.18
2023-01-17T08:21:35.633Z,3.33
2023-01-17T08:24:06.104Z,3.47
2023-01-17T08:26:34.514Z,3.67
2023-01-17T08:29:02.464Z,3.85
2023-01-17T08:31:33.386Z,4.21
2023-01-17T08:34:01.978Z,4.64
2023-01-17T08:36:31.133Z,4.72
2023-01-17T08:39:00.092Z,4.95
2023-01-17T08:41:30.335Z,5.05
2023-01-17T08:43:58.795Z,5.36
2023-01-17T08:46:26.968Z,5.92
2023-01-17T08:48:58.608Z,6.17
2023-01-17T08:51:28.121Z,6.03
2023-01-17T08:53:57.485Z,6.13
2023-01-17T08:56:27.212Z,6.62
2023-01-17T08:58:56.442Z,6.17
2023-01-17T09:01:24.376Z,6.59
2023-01-17T09:03:52.274Z,7.00
2023-01-17T09:06:20.034Z,7.20
2023-01-17T09:08:49.484Z,7.01
2023-01-17T09:11:18.633Z,7.22
2023-01-17T09:13:46.436Z,6.81
2023-01-17T09:16:15.825Z,6.33
2023-01-17T09:18:43.955Z,5.98
2023-01-17T09:21:13.945Z,5.66
2023-01-17T09:23:42.599Z,5.55
2023-01-17T09:26:20.134Z,6.39
2023-01-17T09:28:48.039Z,6.61
2023-01-17T09:31:17.969Z,6.61
2023-01-17T09:33:45.866Z,5.87
2023-01-17T09:36:13.929Z,6.45
2023-01-17T09:38:41.758Z,6.40
2023-01-17T09:41:27.414Z,5.66
2023-01-17T09:44:03.981Z,5.48
2023-01-17T09:46:40.941Z,5.72
2023-01-17T09:49:15.513Z,5.62
2023-01-17T09:51:44.806Z,5.67
2023-01-17T09:54:23.763Z,5.50
2023-01-17T09:57:02.638Z,5.51
2023-01-17T09:59:45.661Z,5.78
2023-01-17T10:02:50.965Z,4.99
2023-01-17T10:05:45.126Z,4.82
2023-01-17T10:08:43.905Z,4.98
2023-01-17T10:11:36.006Z,5.12
2023-01-17T10:14:38.091Z,5.16
2023-01-17T10:17:25.413Z,4.62
2023-01-17T10:20:17.554Z,5.07
2023-01-17T10:23:04.986Z,5.26
2023-01-17T10:25:48.334Z,5.69
2023-01-17T10:28:19.283Z,5.21
2023-01-17T10:30:51.293Z,5.94
2023-01-17T10:33:25.376Z,5.49
2023-01-17T10:35:58.055Z,5.92
2023-01-17T10:38:35.036Z,5.46
2023-01-17T10:41:11.892Z,5.62
2023-01-17T10:43:49.587Z,5.34
2023-01-17T10:46:28.302Z,5.34
2023-01-17T10:48:57.773Z,5.33
2023-01-17T10:51:59.906Z,5.31
2023-01-17T10:54:51.324Z,5.07
2023-01-17T10:57:23.524Z,5.21
2023-01-17T10:59:53.042Z,5.91
2023-01-17T11:02:27.857Z,5.43
2023-01-17T11:04:58.281Z,5.36
2023-01-17T11:07:30.341Z,5.21
2023-01-17T11:09:59.903Z,5.07
2023-01-17T11:12:32.954Z,5.23
2023-01-17T11:15:17.749Z,5.24
2023-01-17T11:17:53.079Z,4.83
2023-01-17T11:20:31.344Z,5.21
2023-01-17T11:23:12.367Z,5.59
2023-01-17T11:25:40.231Z,6.20
2023-01-17T11:28:21.286Z,6.42
2023-01-17T11:30:56.380Z,5.95
2023-01-17T11:33:45.142Z,6.53
2023-01-17T11:36:22.774Z,6.75
2023-01-17T11:39:03.846Z,6.55
2023-01-17T11:41:36.335Z,6.69
2023-01-17T11:44:21.972Z,5.95
2023-01-17T11:46:50.109Z,5.82
2023-01-17T11:49:25.585Z,6.86
2023-01-17T11:51:56.350Z,6.50
2023-01-17T11:54:33.619Z,6.70
2023-01-17T11:57:03.246Z,6.52
2023-01-17T11:59:35.210Z,6.61
2023-01-17T12:03:05.300Z,6.65
2023-01-17T12:05:53.615Z,6.72
2023-01-17T12:08:56.336Z,6.59
2023-01-17T12:12:04.478Z,6.45
2023-01-17T12:14:49.053Z,6.42
2023-01-17T12:17:37.398Z,6.17
2023-01-17T12:20:18.131Z,6.00
2023-01-17T12:23:27.659Z,6.21
2023-01-17T12:26:19.721Z,5.91
2023-01-17T12:29:24.747Z,5.61
2023-01-17T12:32:12.752Z,6.06
2023-01-17T12:34:50.789Z,6.22
2023-01-17T12:37:25.367Z,6.00
2023-01-17T12:40:01.601Z,6.36
2023-01-17T12:42:40.654Z,6.38
2023-01-17T12:45:20.139Z,6.77
2023-01-17T12:47:57.458Z,5.97
2023-01-17T12:50:34.688Z,6.20
2023-01-17T12:53:11.899Z,6.04
2023-01-17T12:55:51.908Z,6.06
2023-01-17T12:58:26.521Z,6.51
2023-01-17T13:01:05.708Z,6.61
2023-01-17T13:03:57.550Z,6.60
2023-01-17T13:06:37.445Z,6.63
2023-01-17T13:09:06.736Z,6.87
2023-01-17T13:11:44.138Z,6.55
2023-01-17T13:14:12.276Z,6.95
2023-01-17T13:16:50.045Z,6.94
2023-01-17T13:19:32.862Z,7.37
2023-01-17T13:22:06.635Z,6.78
2023-01-17T13:24:50.875Z,6.98
2023-01-17T13:27:46.536Z,6.93
2023-01-17T13:30:37.519Z,6.94
2023-01-17T13:33:39.899Z,7.75
2023-01-17T13:36:30.404Z,7.10
2023-01-17T13:39:35.268Z,7.12
2023-01-17T13:42:18.890Z,7.42
2023-01-17T13:44:47.626Z,8.17
2023-01-17T13:47:51.100Z,7.52
2023-01-17T13:50:52.924Z,8.54
2023-01-17T13:54:00.149Z,8.21
2023-01-17T13:56:36.990Z,8.00
2023-01-17T13:59:30.644Z,7.35
2023-01-17T14:01:58.642Z,7.77
2023-01-17T14:05:12.409Z,7.25
2023-01-17T14:07:48.574Z,8.39
2023-01-17T14:10:34.590Z,7.96
2023-01-17T14:13:04.387Z,8.71
2023-01-17T14:15:48.505Z,8.30
2023-01-17T14:18:35.246Z,7.99
2023-01-17T14:21:20.120Z,7.42
2023-01-17T14:24:04.370Z,7.39
2023-01-17T14:26:54.213Z,7.41
2023-01-17T14:29:57.026Z,6.95
2023-01-17T14:32:32.055Z,7.52
2023-01-17T14:35:00.502Z,6.63
2023-01-17T14:37:50.605Z,6.54
2023-01-17T14:40:26.350Z,6.43
2023-01-17T14:43:02.101Z,5.77
2023-01-17T14:45:33.878Z,5.84
2023-01-17T14:48:06.926Z,5.67
2023-01-17T14:50:39.553Z,5.51
2023-01-17T14:53:20.328Z,5.18
2023-01-17T14:55:56.538Z,5.05
2023-01-17T14:58:27.694Z,5.03
2023-01-17T15:01:01.506Z,5.01
2023-01-17T15:03:32.903Z,4.96
2023-01-17T15:06:13.152Z,5.06
2023-01-17T15:08:41.081Z,5.22
2023-01-17T15:11:19.686Z,5.37
2023-01-17T15:13:53.705Z,5.45
2023-01-17T15:16:25.914Z,5.46
2023-01-17T15:18:57.178Z,5.48
2023-01-17T15:21:29.213Z,5.48
2023-01-17T15:24:00.621Z,5.41
2023-01-17T15:26:34.729Z,5.60
2023-01-17T15:29:15.671Z,5.49
2023-01-17T15:31:46.687Z,5.30
2023-01-17T15:34:27.285Z,5.40
2023-01-17T15:36:58.448Z,5.67
2023-01-17T15:39:30.875Z,5.43
2023-01-17T15:42:04.577Z,5.55
2023-01-17T15:44:53.299Z,5.32
2023-01-17T15:47:31.161Z,5.33
2023-01-17T15:50:00.682Z,5.15
2023-01-17T15:52:29.185Z,5.18
2023-01-17T15:55:00.961Z,5.10
2023-01-17T15:57:36.899Z,5.27
2023-01-17T16:00:20.316Z,5.12
2023-01-17T16:02:55.099Z,5.21
2023-01-17T16:05:41.636Z,5.27
2023-01-17T16:08:30.343Z,5.04
2023-01-17T16:11:02.901Z,5.18
2023-01-17T16:13:35.012Z,5.25
2023-01-17T16:16:16.125Z,5.17
2023-01-17T16:18:46.459Z,5.16
2023-01-17T16:21:24.673Z,5.29
2023-01-17T16:23:53.621Z,5.19
2023-01-17T16:26:22.948Z,5.04
2023-01-17T16:28:53.027Z,5.06
2023-01-17T16:31:22.013Z,5.24
2023-01-17T16:33:51.812Z,5.00
2023-01-17T16:36:21.348Z,4.93
2023-01-17T16:38:52.369Z,4.87
2023-01-17T16:41:21.449Z,4.80
2023-01-17T16:43:59.656Z,4.85
2023-01-17T16:46:27.793Z,4.86
2023-01-17T16:48:55.820Z,4.61
2023-01-17T16:51:23.629Z,4.34
2023-01-17T16:53:51.429Z,4.31
2023-01-17T16:56:20.916Z,4.41
2023-01-17T16:58:48.955Z,4.68
2023-01-17T17:01:21.227Z,4.44
2023-01-17T17:03:50.139Z,4.11
2023-01-17T17:06:18.250Z,4.12
2023-01-17T17:08:46.067Z,4.03
2023-01-17T17:11:17.487Z,4.18
2023-01-17T17:13:49.050Z,4.16
2023-01-17T17:16:21.196Z,4.08
2023-01-17T17:18:57.632Z,3.63
2023-01-17T17:21:26.144Z,3.74
2023-01-17T17:23:57.066Z,3.65
2023-01-17T17:26:27.602Z,3.55
2023-01-17T17:28:56.042Z,3.64
2023-01-17T17:31:26.089Z,3.59
2023-01-17T17:34:00.377Z,3.70
2023-01-17T17:36:28.530Z,3.72
2023-01-17T17:38:57.549Z,3.56
2023-01-17T17:41:28.731Z,3.66
2023-01-17T17:43:57.464Z,3.49
2023-01-17T17:46:29.193Z,3.39
2023-01-17T17:48:58.656Z,3.43
2023-01-17T17:51:29.747Z,3.34
2023-01-17T17:54:01.866Z,3.10
2023-01-17T17:56:32.251Z,3.24
2023-01-17T17:59:01.604Z,3.49
2023-01-17T18:01:31.095Z,3.59
2023-01-17T18:04:04.059Z,3.57
2023-01-17T18:06:31.953Z,3.27
2023-01-17T18:08:59.944Z,3.33
2023-01-17T18:11:30.437Z,3.50
2023-01-17T18:14:02.291Z,3.15
2023-01-17T18:16:35.785Z,3.22
2023-01-17T18:19:06.345Z,3.12
2023-01-17T18:21:37.353Z,3.28
2023-01-17T18:24:08.143Z,3.40
2023-01-17T18:26:39.771Z,3.15
2023-01-17T18:29:10.387Z,3.29
2023-01-17T18:31:39.792Z,3.37
2023-01-17T18:34:10.832Z,3.22
2023-01-17T18:36:39.511Z,2.90
2023-01-17T18:39:16.100Z,2.95
2023-01-17T18:41:44.585Z,2.94
2023-01-17T18:44:13.634Z,2.96
2023-01-17T18:46:43.215Z,3.01
2023-01-17T18:49:14.709Z,2.97
2023-01-17T18:51:46.385Z,2.70
2023-01-17T18:54:14.455Z,3.07
2023-01-17T18:56:42.860Z,3.15
2023-01-17T18:59:14.009Z,3.18
2023-01-17T19:01:43.673Z,2.73
2023-01-17T19:04:13.554Z,2.93
2023-01-17T19:06:45.348Z,2.84
2023-01-17T19:09:15.573Z,2.94
2023-01-17T19:11:45.004Z,2.84
2023-01-17T19:14:14.426Z,2.90
2023-01-17T19:16:43.872Z,2.99
2023-01-17T19:19:14.954Z,2.90
2023-01-17T19:21:42.963Z,2.85
2023-01-17T19:24:12.978Z,2.72
2023-01-17T19:26:41.116Z,2.72
2023-01-17T19:29:09.068Z,2.66
2023-01-17T19:31:42.491Z,2.79
2023-01-17T19:34:13.888Z,2.77
2023-01-17T19:36:42.206Z,2.78
2023-01-17T19:39:10.961Z,2.59
2023-01-17T19:41:44.736Z,2.69
2023-01-17T19:44:15.368Z,2.69
2023-01-17T19:46:43.982Z,2.71
2023-01-17T19:49:13.688Z,2.54
2023-01-17T19:51:41.396Z,2.46
2023-01-17T19:54:09.229Z,2.52
2023-01-17T19:56:37.637Z,2.45
2023-01-17T19:59:05.932Z,2.43
2023-01-17T20:01:35.763Z,2.09
2023-01-17T20:04:04.634Z,1.91
2023-01-17T20:06:36.957Z,1.69
2023-01-17T20:09:06.304Z,1.81
2023-01-17T20:11:34.195Z,1.51
2023-01-17T20:14:02.590Z,1.86
2023-01-17T20:16:33.130Z,1.84
2023-01-17T20:19:02.546Z,1.79
2023-01-17T20:21:34.366Z,1.95
2023-01-17T20:24:04.182Z,1.78
2023-01-17T20:26:35.727Z,2.00
2023-01-17T20:29:09.934Z,1.98
2023-01-17T20:31:39.378Z,1.93
2023-01-17T20:34:09.918Z,2.03
2023-01-17T20:36:41.480Z,2.17
2023-01-17T20:39:10.959Z,1.79
2023-01-17T20:41:42.409Z,2.02
2023-01-17T20:44:13.930Z,1.85
2023-01-17T20:46:42.918Z,2.03
2023-01-17T20:49:15.462Z,1.89
2023-01-17T20:51:47.272Z,2.11
2023-01-17T20:54:20.250Z,1.96
2023-01-17T20:56:48.796Z,1.74
2023-01-17T20:59:19.480Z,1.80
2023-01-17T21:01:48.185Z,1.87
2023-01-17T21:04:20.031Z,1.81
2023-01-17T21:06:51.611Z,1.73
2023-01-17T21:09:21.287Z,1.67
2023-01-17T21:11:50.451Z,1.54
2023-01-17T21:14:18.837Z,1.74
2023-01-17T21:16:46.803Z,1.75
2023-01-17T21:19:16.204Z,1.91
2023-01-17T21:21:44.184Z,2.16
2023-01-17T21:24:18.450Z,1.99
2023-01-17T21:26:47.802Z,1.91
2023-01-17T21:29:16.413Z,1.84
2023-01-17T21:31:45.211Z,2.01
2023-01-17T21:34:15.193Z,1.91
2023-01-17T21:36:44.146Z,1.93
2023-01-17T21:39:16.499Z,2.03
2023-01-17T21:41:47.746Z,1.90
2023-01-17T21:44:20.286Z,1.91
2023-01-17T21:46:49.201Z,1.68
2023-01-17T21:49:17.191Z,1.59
2023-01-17T21:52:02.206Z,1.69
2023-01-17T21:54:50.395Z,1.42
2023-01-17T21:57:40.821Z,1.75
2023-01-17T22:00:14.248Z,1.91
2023-01-17T22:02:42.544Z,1.42
2023-01-17T22:05:11.538Z,1.60
2023-01-17T22:07:40.115Z,1.75
2023-01-17T22:10:11.274Z,1.64
2023-01-17T22:12:39.097Z,1.59
2023-01-17T22:15:09.002Z,1.92
2023-01-17T22:17:38.205Z,1.73
2023-01-17T22:20:15.450Z,2.01
2023-01-17T22:22:48.348Z,2.09
2023-01-17T22:25:17.699Z,1.90
2023-01-17T22:27:45.599Z,1.88
2023-01-17T22:30:14.554Z,1.81
2023-01-17T22:32:50.436Z,1.86
2023-01-17T22:35:38.865Z,1.93
2023-01-17T22:38:07.510Z,2.02
2023-01-17T22:40:38.390Z,1.90
2023-01-17T22:43:40.497Z,2.03
2023-01-17T22:46:12.065Z,2.07
2023-01-17T22:48:41.059Z,1.92
2023-01-17T22:51:12.135Z,1.56
2023-01-17T22:53:42.230Z,1.72
2023-01-17T22:56:14.173Z,1.55
2023-01-17T22:58:44.930Z,1.88
2023-01-17T23:01:15.106Z,1.69
2023-01-17T23:03:44.553Z,1.90
2023-01-17T23:06:16.968Z,1.69
2023-01-17T23:08:48.339Z,1.72
2023-01-17T23:11:42.441Z,1.91
2023-01-17T23:14:15.965Z,1.66
2023-01-17T23:17:07.192Z,1.79
2023-01-17T23:19:38.545Z,1.92
2023-01-17T23:22:19.583Z,2.16
2023-01-17T23:24:51.600Z,2.08
2023-01-17T23:27:42.046Z,2.04
2023-01-17T23:30:13.565Z,1.81
2023-01-17T23:32:46.177Z,2.00
2023-01-17T23:35:14.863Z,1.67
2023-01-17T23:38:00.372Z,1.35
2023-01-17T23:40:28.339Z,1.69
2023-01-17T23:43:15.433Z,1.55
2023-01-17T23:45:43.574Z,1.70
2023-01-17T23:48:11.925Z,1.75
2023-01-17T23:50:44.084Z,1.72
2023-01-17T23:53:22.201Z,1.57
2023-01-17T23:55:52.632Z,1.33
2023-01-17T23:58:24.196Z,1.63
